Norman, Arkansas
Current Conditions -  °F | °C
As of 8:53 AM on Tuesday 21 Oct 2014 (Local Time) from KMWT Reporting Station
Haze Haze  
Wind Chill: 14°   Ceiling: Unl
Heat Index: 14°   Visibility: 6mi
Dew Point: 13°   Wind: 0mph
Humidity: 96%   Direction: NA
Pressure: 30.11"   Gusts: NA
Location:  34.46°N, 93.68°W
Report Text: KMWT 211353Z AUTO 00000KT 6SM BR SCT048 14/13 A3011 RMK AO2 SLP195 T01390133
Loading
Personal Weather Stations






























Interactive Weather Map
Tropical Storm Tracking
New forecast layout! Learn more

10-Day Weather Forecast

Advertisements
Track Severe Weather on mobile